sensor_id;sensor_type;location;lat;lon;timestamp;P1;durP1;ratioP1;P2;durP2;ratioP2
21833;SDS011;11079;51.092;3.458;2022-09-20T00:01:19;12.00;;;4.65;;
21833;SDS011;11079;51.092;3.458;2022-09-20T00:03:48;6.07;;;3.47;;
21833;SDS011;11079;51.092;3.458;2022-09-20T00:06:19;8.07;;;3.38;;
21833;SDS011;11079;51.092;3.458;2022-09-20T00:08:46;5.85;;;3.47;;
21833;SDS011;11079;51.092;3.458;2022-09-20T00:11:16;6.65;;;3.00;;
21833;SDS011;11079;51.092;3.458;2022-09-20T00:13:45;8.00;;;3.22;;
21833;SDS011;11079;51.092;3.458;2022-09-20T00:16:16;8.55;;;3.72;;
21833;SDS011;11079;51.092;3.458;2022-09-20T00:18:51;6.93;;;2.67;;
21833;SDS011;11079;51.092;3.458;2022-09-20T00:21:19;6.90;;;3.63;;
21833;SDS011;11079;51.092;3.458;2022-09-20T00:23:46;9.77;;;3.47;;
21833;SDS011;11079;51.092;3.458;2022-09-20T00:26:12;8.27;;;3.25;;
21833;SDS011;11079;51.092;3.458;2022-09-20T00:28:38;4.15;;;3.28;;
21833;SDS011;11079;51.092;3.458;2022-09-20T00:31:05;9.10;;;4.18;;
21833;SDS011;11079;51.092;3.458;2022-09-20T00:33:32;4.75;;;2.85;;
21833;SDS011;11079;51.092;3.458;2022-09-20T00:36:16;5.45;;;2.88;;
21833;SDS011;11079;51.092;3.458;2022-09-20T00:38:42;6.70;;;3.05;;
21833;SDS011;11079;51.092;3.458;2022-09-20T00:41:08;5.30;;;2.90;;
21833;SDS011;11079;51.092;3.458;2022-09-20T00:46:08;5.18;;;3.35;;
21833;SDS011;11079;51.092;3.458;2022-09-20T00:48:44;6.75;;;3.78;;
21833;SDS011;11079;51.092;3.458;2022-09-20T00:51:11;5.13;;;3.00;;
21833;SDS011;11079;51.092;3.458;2022-09-20T00:53:44;7.15;;;2.67;;
21833;SDS011;11079;51.092;3.458;2022-09-20T00:56:16;9.15;;;3.25;;
21833;SDS011;11079;51.092;3.458;2022-09-20T00:58:48;3.92;;;2.72;;
21833;SDS011;11079;51.092;3.458;2022-09-20T01:01:23;10.13;;;3.30;;
21833;SDS011;11079;51.092;3.458;2022-09-20T01:03:49;6.78;;;3.05;;
21833;SDS011;11079;51.092;3.458;2022-09-20T01:06:15;6.22;;;3.28;;
21833;SDS011;11079;51.092;3.458;2022-09-20T01:08:44;5.63;;;3.17;;
21833;SDS011;11079;51.092;3.458;2022-09-20T01:11:12;4.63;;;3.17;;
21833;SDS011;11079;51.092;3.458;2022-09-20T01:13:38;5.72;;;3.00;;
21833;SDS011;11079;51.092;3.458;2022-09-20T01:16:04;5.85;;;3.30;;
21833;SDS011;11079;51.092;3.458;2022-09-20T01:18:31;9.27;;;3.10;;
21833;SDS011;11079;51.092;3.458;2022-09-20T01:20:59;5.03;;;2.97;;
21833;SDS011;11079;51.092;3.458;2022-09-20T01:28:42;5.78;;;3.10;;
21833;SDS011;11079;51.092;3.458;2022-09-20T01:36:38;5.43;;;3.33;;
21833;SDS011;11079;51.092;3.458;2022-09-20T01:41:44;5.80;;;3.20;;
21833;SDS011;11079;51.092;3.458;2022-09-20T02:11:28;7.72;;;3.05;;
21833;SDS011;11079;51.092;3.458;2022-09-20T02:17:37;7.00;;;2.90;;
21833;SDS011;11079;51.092;3.458;2022-09-20T02:23:15;4.65;;;2.97;;
21833;SDS011;11079;51.092;3.458;2022-09-20T02:26:23;5.28;;;3.17;;
21833;SDS011;11079;51.092;3.458;2022-09-20T02:34:45;4.47;;;2.95;;
21833;SDS011;11079;51.092;3.458;2022-09-20T02:40:32;5.50;;;3.10;;
21833;SDS011;11079;51.092;3.458;2022-09-20T02:49:09;5.97;;;3.30;;
21833;SDS011;11079;51.092;3.458;2022-09-20T02:51:42;6.65;;;3.15;;
21833;SDS011;11079;51.092;3.458;2022-09-20T02:56:59;7.10;;;3.38;;
21833;SDS011;11079;51.092;3.458;2022-09-20T02:59:48;7.20;;;3.17;;
21833;SDS011;11079;51.092;3.458;2022-09-20T03:02:23;6.10;;;3.20;;
21833;SDS011;11079;51.092;3.458;2022-09-20T03:11:16;4.97;;;3.08;;
21833;SDS011;11079;51.092;3.458;2022-09-20T03:16:57;7.57;;;2.90;;
21833;SDS011;11079;51.092;3.458;2022-09-20T03:28:14;12.57;;;2.85;;
21833;SDS011;11079;51.092;3.458;2022-09-20T03:42:30;7.05;;;2.85;;
21833;SDS011;11079;51.092;3.458;2022-09-20T03:53:36;9.68;;;3.30;;
21833;SDS011;11079;51.092;3.458;2022-09-20T03:59:21;6.13;;;3.85;;
21833;SDS011;11079;51.092;3.458;2022-09-20T04:04:45;11.52;;;3.53;;
21833;SDS011;11079;51.092;3.458;2022-09-20T04:07:20;8.77;;;3.78;;
21833;SDS011;11079;51.092;3.458;2022-09-20T04:16:04;6.97;;;3.47;;
21833;SDS011;11079;51.092;3.458;2022-09-20T04:23:38;8.88;;;4.22;;
21833;SDS011;11079;51.092;3.458;2022-09-20T04:26:30;9.43;;;4.20;;
21833;SDS011;11079;51.092;3.458;2022-09-20T04:32:00;7.53;;;4.10;;
21833;SDS011;11079;51.092;3.458;2022-09-20T04:34:34;12.55;;;4.38;;
21833;SDS011;11079;51.092;3.458;2022-09-20T05:00:15;8.10;;;4.70;;
21833;SDS011;11079;51.092;3.458;2022-09-20T05:08:50;10.60;;;4.63;;
21833;SDS011;11079;51.092;3.458;2022-09-20T05:14:23;15.40;;;5.68;;
21833;SDS011;11079;51.092;3.458;2022-09-20T05:20:21;15.18;;;5.40;;
21833;SDS011;11079;51.092;3.458;2022-09-20T05:23:16;9.77;;;5.55;;
21833;SDS011;11079;51.092;3.458;2022-09-20T05:28:43;9.43;;;5.95;;
21833;SDS011;11079;51.092;3.458;2022-09-20T05:37:22;11.82;;;6.00;;
21833;SDS011;11079;51.092;3.458;2022-09-20T05:48:27;13.00;;;6.95;;
21833;SDS011;11079;51.092;3.458;2022-09-20T06:02:37;10.32;;;6.03;;
21833;SDS011;11079;51.092;3.458;2022-09-20T06:05:58;11.82;;;5.28;;
21833;SDS011;11079;51.092;3.458;2022-09-20T06:08:45;8.60;;;5.25;;
21833;SDS011;11079;51.092;3.458;2022-09-20T06:11:47;8.00;;;4.50;;
21833;SDS011;11079;51.092;3.458;2022-09-20T06:23:43;6.20;;;3.42;;
21833;SDS011;11079;51.092;3.458;2022-09-20T06:26:13;9.13;;;3.70;;
21833;SDS011;11079;51.092;3.458;2022-09-20T06:28:48;7.82;;;3.72;;
21833;SDS011;11079;51.092;3.458;2022-09-20T06:31:17;6.10;;;3.00;;
21833;SDS011;11079;51.092;3.458;2022-09-20T06:33:56;9.35;;;4.03;;
21833;SDS011;11079;51.092;3.458;2022-09-20T06:36:25;7.38;;;3.65;;
21833;SDS011;11079;51.092;3.458;2022-09-20T06:42:10;8.05;;;3.15;;
21833;SDS011;11079;51.092;3.458;2022-09-20T06:44:36;5.72;;;2.80;;
21833;SDS011;11079;51.092;3.458;2022-09-20T06:47:10;11.77;;;3.60;;
21833;SDS011;11079;51.092;3.458;2022-09-20T06:49:42;9.43;;;3.30;;
21833;SDS011;11079;51.092;3.458;2022-09-20T06:52:14;8.52;;;3.00;;
21833;SDS011;11079;51.092;3.458;2022-09-20T06:54:45;6.05;;;2.67;;
21833;SDS011;11079;51.092;3.458;2022-09-20T06:57:16;3.58;;;2.40;;
21833;SDS011;11079;51.092;3.458;2022-09-20T06:59:43;3.08;;;2.35;;
21833;SDS011;11079;51.092;3.458;2022-09-20T07:02:09;6.07;;;2.70;;
21833;SDS011;11079;51.092;3.458;2022-09-20T07:04:36;8.55;;;2.70;;
21833;SDS011;11079;51.092;3.458;2022-09-20T07:07:02;7.28;;;3.03;;
21833;SDS011;11079;51.092;3.458;2022-09-20T07:09:29;6.18;;;2.90;;
21833;SDS011;11079;51.092;3.458;2022-09-20T07:11:55;8.57;;;3.10;;
21833;SDS011;11079;51.092;3.458;2022-09-20T07:14:23;6.18;;;3.17;;
21833;SDS011;11079;51.092;3.458;2022-09-20T07:16:51;5.88;;;3.00;;
21833;SDS011;11079;51.092;3.458;2022-09-20T07:19:17;7.05;;;3.60;;
21833;SDS011;11079;51.092;3.458;2022-09-20T07:21:43;4.20;;;3.20;;
21833;SDS011;11079;51.092;3.458;2022-09-20T07:24:08;9.93;;;4.30;;
21833;SDS011;11079;51.092;3.458;2022-09-20T07:26:34;6.28;;;3.45;;
21833;SDS011;11079;51.092;3.458;2022-09-20T07:29:00;6.82;;;3.58;;
21833;SDS011;11079;51.092;3.458;2022-09-20T07:31:26;7.82;;;3.55;;
21833;SDS011;11079;51.092;3.458;2022-09-20T07:33:53;7.25;;;4.13;;
21833;SDS011;11079;51.092;3.458;2022-09-20T07:36:19;8.13;;;3.65;;
21833;SDS011;11079;51.092;3.458;2022-09-20T07:38:46;9.98;;;4.22;;
21833;SDS011;11079;51.092;3.458;2022-09-20T07:41:16;12.05;;;4.10;;
21833;SDS011;11079;51.092;3.458;2022-09-20T07:43:47;7.50;;;4.30;;
21833;SDS011;11079;51.092;3.458;2022-09-20T07:46:14;5.97;;;3.65;;
21833;SDS011;11079;51.092;3.458;2022-09-20T07:48:40;11.07;;;4.97;;
21833;SDS011;11079;51.092;3.458;2022-09-20T07:51:07;13.82;;;4.65;;
21833;SDS011;11079;51.092;3.458;2022-09-20T07:53:35;6.63;;;3.85;;
21833;SDS011;11079;51.092;3.458;2022-09-20T07:56:05;9.88;;;4.07;;
21833;SDS011;11079;51.092;3.458;2022-09-20T07:58:32;8.55;;;3.95;;
21833;SDS011;11079;51.092;3.458;2022-09-20T08:01:00;11.88;;;4.18;;
21833;SDS011;11079;51.092;3.458;2022-09-20T08:03:28;8.55;;;4.55;;
21833;SDS011;11079;51.092;3.458;2022-09-20T08:06:02;8.80;;;3.75;;
21833;SDS011;11079;51.092;3.458;2022-09-20T08:08:33;4.20;;;3.50;;
21833;SDS011;11079;51.092;3.458;2022-09-20T08:11:04;8.15;;;4.05;;
21833;SDS011;11079;51.092;3.458;2022-09-20T08:13:50;8.18;;;3.53;;
21833;SDS011;11079;51.092;3.458;2022-09-20T08:16:17;7.30;;;3.30;;
21833;SDS011;11079;51.092;3.458;2022-09-20T08:18:44;7.70;;;4.03;;
21833;SDS011;11079;51.092;3.458;2022-09-20T08:21:13;9.48;;;5.10;;
21833;SDS011;11079;51.092;3.458;2022-09-20T08:23:40;7.30;;;4.03;;
21833;SDS011;11079;51.092;3.458;2022-09-20T08:26:11;9.07;;;3.65;;
21833;SDS011;11079;51.092;3.458;2022-09-20T08:28:40;7.68;;;2.40;;
21833;SDS011;11079;51.092;3.458;2022-09-20T08:31:12;7.80;;;2.60;;
21833;SDS011;11079;51.092;3.458;2022-09-20T08:33:40;4.65;;;2.13;;
21833;SDS011;11079;51.092;3.458;2022-09-20T08:36:07;7.38;;;2.40;;
21833;SDS011;11079;51.092;3.458;2022-09-20T08:38:39;3.35;;;1.85;;
21833;SDS011;11079;51.092;3.458;2022-09-20T08:41:18;5.70;;;2.00;;
21833;SDS011;11079;51.092;3.458;2022-09-20T08:47:05;8.00;;;2.10;;
21833;SDS011;11079;51.092;3.458;2022-09-20T08:49:41;7.85;;;2.13;;
21833;SDS011;11079;51.092;3.458;2022-09-20T08:52:09;6.50;;;2.30;;
21833;SDS011;11079;51.092;3.458;2022-09-20T08:54:47;5.13;;;2.40;;
21833;SDS011;11079;51.092;3.458;2022-09-20T08:57:19;2.42;;;1.90;;
21833;SDS011;11079;51.092;3.458;2022-09-20T08:59:52;3.63;;;2.08;;
21833;SDS011;11079;51.092;3.458;2022-09-20T09:02:33;3.60;;;2.03;;
21833;SDS011;11079;51.092;3.458;2022-09-20T09:04:59;6.47;;;1.98;;
21833;SDS011;11079;51.092;3.458;2022-09-20T09:07:34;2.97;;;1.67;;
21833;SDS011;11079;51.092;3.458;2022-09-20T09:10:00;5.72;;;2.05;;
21833;SDS011;11079;51.092;3.458;2022-09-20T09:12:30;5.22;;;2.50;;
21833;SDS011;11079;51.092;3.458;2022-09-20T09:15:03;2.70;;;1.80;;
21833;SDS011;11079;51.092;3.458;2022-09-20T09:17:47;6.05;;;1.23;;
21833;SDS011;11079;51.092;3.458;2022-09-20T09:20:18;3.78;;;1.10;;
21833;SDS011;11079;51.092;3.458;2022-09-20T09:25:56;3.25;;;1.17;;
21833;SDS011;11079;51.092;3.458;2022-09-20T09:28:38;3.08;;;1.17;;
21833;SDS011;11079;51.092;3.458;2022-09-20T09:31:38;4.88;;;1.30;;
21833;SDS011;11079;51.092;3.458;2022-09-20T10:05:13;2.65;;;1.20;;
21833;SDS011;11079;51.092;3.458;2022-09-20T10:16:07;2.47;;;1.20;;
21833;SDS011;11079;51.092;3.458;2022-09-20T10:21:37;3.80;;;0.95;;
21833;SDS011;11079;51.092;3.458;2022-09-20T10:24:41;2.15;;;1.08;;
21833;SDS011;11079;51.092;3.458;2022-09-20T10:31:03;2.78;;;0.80;;
21833;SDS011;11079;51.092;3.458;2022-09-20T10:33:43;3.08;;;0.70;;
21833;SDS011;11079;51.092;3.458;2022-09-20T10:36:20;2.33;;;0.70;;
21833;SDS011;11079;51.092;3.458;2022-09-20T10:39:11;4.97;;;1.15;;
21833;SDS011;11079;51.092;3.458;2022-09-20T10:41:56;2.97;;;0.95;;
21833;SDS011;11079;51.092;3.458;2022-09-20T10:54:13;1.20;;;0.60;;
21833;SDS011;11079;51.092;3.458;2022-09-20T10:57:18;21.23;;;3.50;;
21833;SDS011;11079;51.092;3.458;2022-09-20T11:05:45;2.22;;;0.70;;
21833;SDS011;11079;51.092;3.458;2022-09-20T11:08:51;1.75;;;0.47;;
21833;SDS011;11079;51.092;3.458;2022-09-20T11:11:30;2.20;;;0.52;;
21833;SDS011;11079;51.092;3.458;2022-09-20T11:14:05;3.45;;;0.50;;
21833;SDS011;11079;51.092;3.458;2022-09-20T11:16:49;2.72;;;0.47;;
21833;SDS011;11079;51.092;3.458;2022-09-20T11:22:31;1.65;;;0.32;;
21833;SDS011;11079;51.092;3.458;2022-09-20T11:25:19;1.88;;;0.60;;
21833;SDS011;11079;51.092;3.458;2022-09-20T11:31:15;1.30;;;0.35;;
21833;SDS011;11079;51.092;3.458;2022-09-20T11:33:57;1.63;;;0.40;;
21833;SDS011;11079;51.092;3.458;2022-09-20T11:36:40;1.35;;;0.40;;
21833;SDS011;11079;51.092;3.458;2022-09-20T11:42:08;1.98;;;0.70;;
21833;SDS011;11079;51.092;3.458;2022-09-20T11:44:40;2.30;;;0.60;;
21833;SDS011;11079;51.092;3.458;2022-09-20T11:47:50;1.45;;;0.40;;
21833;SDS011;11079;51.092;3.458;2022-09-20T11:58:53;2.65;;;0.50;;
21833;SDS011;11079;51.092;3.458;2022-09-20T12:03:59;2.65;;;0.68;;
21833;SDS011;11079;51.092;3.458;2022-09-20T12:06:36;2.38;;;0.80;;
21833;SDS011;11079;51.092;3.458;2022-09-20T12:09:05;3.05;;;0.93;;
21833;SDS011;11079;51.092;3.458;2022-09-20T12:11:46;1.23;;;0.75;;
21833;SDS011;11079;51.092;3.458;2022-09-20T12:14:16;3.47;;;1.10;;
21833;SDS011;11079;51.092;3.458;2022-09-20T12:16:47;2.20;;;0.90;;
21833;SDS011;11079;51.092;3.458;2022-09-20T12:24:39;1.80;;;1.02;;
21833;SDS011;11079;51.092;3.458;2022-09-20T12:30:04;6.75;;;1.23;;
21833;SDS011;11079;51.092;3.458;2022-09-20T12:43:51;3.70;;;1.15;;
21833;SDS011;11079;51.092;3.458;2022-09-20T12:46:22;2.95;;;0.70;;
21833;SDS011;11079;51.092;3.458;2022-09-20T12:48:50;2.35;;;0.80;;
21833;SDS011;11079;51.092;3.458;2022-09-20T12:51:56;2.33;;;0.88;;
21833;SDS011;11079;51.092;3.458;2022-09-20T12:54:55;3.17;;;0.47;;
21833;SDS011;11079;51.092;3.458;2022-09-20T12:57:27;5.60;;;0.50;;
21833;SDS011;11079;51.092;3.458;2022-09-20T13:00:00;3.42;;;0.60;;
21833;SDS011;11079;51.092;3.458;2022-09-20T13:05:36;3.22;;;0.50;;
21833;SDS011;11079;51.092;3.458;2022-09-20T13:19:20;1.98;;;0.40;;
21833;SDS011;11079;51.092;3.458;2022-09-20T13:21:55;1.48;;;0.30;;
21833;SDS011;11079;51.092;3.458;2022-09-20T13:24:25;1.45;;;0.50;;
21833;SDS011;11079;51.092;3.458;2022-09-20T13:26:59;3.60;;;0.40;;
21833;SDS011;11079;51.092;3.458;2022-09-20T13:29:36;2.40;;;0.50;;
21833;SDS011;11079;51.092;3.458;2022-09-20T13:32:25;3.45;;;0.40;;
21833;SDS011;11079;51.092;3.458;2022-09-20T13:35:12;4.10;;;0.60;;
21833;SDS011;11079;51.092;3.458;2022-09-20T13:37:49;1.48;;;0.35;;
21833;SDS011;11079;51.092;3.458;2022-09-20T13:51:51;2.17;;;0.50;;
21833;SDS011;11079;51.092;3.458;2022-09-20T13:54:30;2.00;;;0.40;;
21833;SDS011;11079;51.092;3.458;2022-09-20T13:57:05;2.05;;;0.30;;
21833;SDS011;11079;51.092;3.458;2022-09-20T13:59:43;3.45;;;0.30;;
21833;SDS011;11079;51.092;3.458;2022-09-20T14:02:21;3.88;;;0.68;;
21833;SDS011;11079;51.092;3.458;2022-09-20T14:04:47;6.82;;;1.13;;
21833;SDS011;11079;51.092;3.458;2022-09-20T14:07:15;2.05;;;0.40;;
21833;SDS011;11079;51.092;3.458;2022-09-20T14:09:41;2.17;;;0.40;;
21833;SDS011;11079;51.092;3.458;2022-09-20T14:12:11;3.45;;;0.50;;
21833;SDS011;11079;51.092;3.458;2022-09-20T14:14:46;2.78;;;0.47;;
21833;SDS011;11079;51.092;3.458;2022-09-20T14:17:18;1.88;;;0.30;;
21833;SDS011;11079;51.092;3.458;2022-09-20T14:19:47;2.97;;;0.47;;
21833;SDS011;11079;51.092;3.458;2022-09-20T14:22:27;2.90;;;0.50;;
21833;SDS011;11079;51.092;3.458;2022-09-20T14:25:01;1.88;;;0.60;;
21833;SDS011;11079;51.092;3.458;2022-09-20T14:27:36;1.70;;;0.50;;
21833;SDS011;11079;51.092;3.458;2022-09-20T14:30:03;2.60;;;0.40;;
21833;SDS011;11079;51.092;3.458;2022-09-20T14:35:19;4.20;;;0.50;;
21833;SDS011;11079;51.092;3.458;2022-09-20T14:37:55;2.42;;;0.35;;
21833;SDS011;11079;51.092;3.458;2022-09-20T14:40:33;3.60;;;0.35;;
21833;SDS011;11079;51.092;3.458;2022-09-20T14:45:51;4.43;;;0.45;;
21833;SDS011;11079;51.092;3.458;2022-09-20T14:50:45;3.20;;;0.60;;
21833;SDS011;11079;51.092;3.458;2022-09-20T14:53:40;2.42;;;0.70;;
21833;SDS011;11079;51.092;3.458;2022-09-20T14:56:11;4.60;;;0.75;;
21833;SDS011;11079;51.092;3.458;2022-09-20T15:04:33;1.65;;;0.50;;
21833;SDS011;11079;51.092;3.458;2022-09-20T15:07:46;2.75;;;0.50;;
21833;SDS011;11079;51.092;3.458;2022-09-20T15:11:10;2.75;;;0.55;;
21833;SDS011;11079;51.092;3.458;2022-09-20T15:14:31;3.03;;;0.73;;
21833;SDS011;11079;51.092;3.458;2022-09-20T15:23:02;3.97;;;1.02;;
21833;SDS011;11079;51.092;3.458;2022-09-20T15:29:14;3.90;;;0.50;;
21833;SDS011;11079;51.092;3.458;2022-09-20T15:42:07;4.90;;;0.88;;
21833;SDS011;11079;51.092;3.458;2022-09-20T15:44:44;2.35;;;0.80;;
21833;SDS011;11079;51.092;3.458;2022-09-20T15:47:13;2.78;;;0.70;;
21833;SDS011;11079;51.092;3.458;2022-09-20T15:49:38;3.10;;;0.77;;
21833;SDS011;11079;51.092;3.458;2022-09-20T15:52:09;2.75;;;0.57;;
21833;SDS011;11079;51.092;3.458;2022-09-20T15:54:37;2.83;;;0.70;;
21833;SDS011;11079;51.092;3.458;2022-09-20T15:57:04;2.35;;;0.80;;
21833;SDS011;11079;51.092;3.458;2022-09-20T15:59:40;2.03;;;0.80;;
21833;SDS011;11079;51.092;3.458;2022-09-20T16:02:05;1.85;;;0.50;;
21833;SDS011;11079;51.092;3.458;2022-09-20T16:07:22;1.85;;;0.60;;
21833;SDS011;11079;51.092;3.458;2022-09-20T16:10:28;1.83;;;1.05;;
21833;SDS011;11079;51.092;3.458;2022-09-20T16:13:20;4.05;;;0.77;;
21833;SDS011;11079;51.092;3.458;2022-09-20T16:15:56;1.27;;;0.70;;
21833;SDS011;11079;51.092;3.458;2022-09-20T16:18:45;2.10;;;0.68;;
21833;SDS011;11079;51.092;3.458;2022-09-20T16:21:29;1.92;;;0.75;;
21833;SDS011;11079;51.092;3.458;2022-09-20T16:23:56;5.97;;;0.90;;
21833;SDS011;11079;51.092;3.458;2022-09-20T16:26:23;2.42;;;0.60;;
21833;SDS011;11079;51.092;3.458;2022-09-20T16:29:01;2.42;;;0.43;;
21833;SDS011;11079;51.092;3.458;2022-09-20T16:31:40;3.58;;;0.70;;
21833;SDS011;11079;51.092;3.458;2022-09-20T16:34:48;3.53;;;0.73;;
21833;SDS011;11079;51.092;3.458;2022-09-20T16:37:18;1.67;;;0.70;;
21833;SDS011;11079;51.092;3.458;2022-09-20T16:39:43;4.45;;;0.50;;
21833;SDS011;11079;51.092;3.458;2022-09-20T16:42:10;2.83;;;0.68;;
21833;SDS011;11079;51.092;3.458;2022-09-20T16:44:38;3.08;;;0.70;;
21833;SDS011;11079;51.092;3.458;2022-09-20T16:47:07;4.15;;;0.95;;
21833;SDS011;11079;51.092;3.458;2022-09-20T16:49:36;4.38;;;0.70;;
21833;SDS011;11079;51.092;3.458;2022-09-20T16:52:07;3.80;;;0.75;;
21833;SDS011;11079;51.092;3.458;2022-09-20T16:54:33;3.00;;;0.73;;
21833;SDS011;11079;51.092;3.458;2022-09-20T16:56:59;3.17;;;0.70;;
21833;SDS011;11079;51.092;3.458;2022-09-20T16:59:25;2.85;;;0.82;;
21833;SDS011;11079;51.092;3.458;2022-09-20T17:01:53;2.80;;;0.70;;
21833;SDS011;11079;51.092;3.458;2022-09-20T17:04:19;1.67;;;0.65;;
21833;SDS011;11079;51.092;3.458;2022-09-20T17:06:48;6.30;;;0.82;;
21833;SDS011;11079;51.092;3.458;2022-09-20T17:09:51;3.38;;;0.70;;
21833;SDS011;11079;51.092;3.458;2022-09-20T17:12:27;4.35;;;1.10;;
21833;SDS011;11079;51.092;3.458;2022-09-20T17:14:59;3.17;;;1.10;;
21833;SDS011;11079;51.092;3.458;2022-09-20T17:17:25;3.78;;;0.98;;
21833;SDS011;11079;51.092;3.458;2022-09-20T17:19:50;4.38;;;0.70;;
21833;SDS011;11079;51.092;3.458;2022-09-20T17:22:16;6.35;;;0.93;;
21833;SDS011;11079;51.092;3.458;2022-09-20T17:24:42;3.55;;;0.98;;
21833;SDS011;11079;51.092;3.458;2022-09-20T17:27:07;5.15;;;1.10;;
21833;SDS011;11079;51.092;3.458;2022-09-20T17:29:34;2.88;;;1.25;;
21833;SDS011;11079;51.092;3.458;2022-09-20T17:31:59;5.13;;;1.98;;
21833;SDS011;11079;51.092;3.458;2022-09-20T17:34:25;5.38;;;1.45;;
21833;SDS011;11079;51.092;3.458;2022-09-20T17:37:00;5.13;;;1.33;;
21833;SDS011;11079;51.092;3.458;2022-09-20T17:39:34;2.92;;;1.30;;
21833;SDS011;11079;51.092;3.458;2022-09-20T17:45:21;4.22;;;1.55;;
21833;SDS011;11079;51.092;3.458;2022-09-20T17:47:47;6.55;;;1.40;;
21833;SDS011;11079;51.092;3.458;2022-09-20T17:50:12;6.20;;;1.90;;
21833;SDS011;11079;51.092;3.458;2022-09-20T17:52:40;3.05;;;1.50;;
21833;SDS011;11079;51.092;3.458;2022-09-20T17:55:08;7.60;;;3.10;;
21833;SDS011;11079;51.092;3.458;2022-09-20T17:57:35;10.10;;;3.45;;
21833;SDS011;11079;51.092;3.458;2022-09-20T18:00:01;6.47;;;2.50;;
21833;SDS011;11079;51.092;3.458;2022-09-20T18:02:28;5.25;;;2.60;;
21833;SDS011;11079;51.092;3.458;2022-09-20T18:04:54;5.72;;;1.70;;
21833;SDS011;11079;51.092;3.458;2022-09-20T18:07:22;4.57;;;1.50;;
21833;SDS011;11079;51.092;3.458;2022-09-20T18:09:50;4.53;;;1.15;;
21833;SDS011;11079;51.092;3.458;2022-09-20T18:12:25;4.97;;;1.30;;
21833;SDS011;11079;51.092;3.458;2022-09-20T18:18:23;3.47;;;1.70;;
21833;SDS011;11079;51.092;3.458;2022-09-20T18:21:02;3.90;;;1.42;;
21833;SDS011;11079;51.092;3.458;2022-09-20T18:24:06;2.35;;;1.42;;
21833;SDS011;11079;51.092;3.458;2022-09-20T18:26:36;2.92;;;1.30;;
21833;SDS011;11079;51.092;3.458;2022-09-20T18:29:07;3.30;;;1.20;;
21833;SDS011;11079;51.092;3.458;2022-09-20T18:34:13;5.78;;;1.90;;
21833;SDS011;11079;51.092;3.458;2022-09-20T18:36:42;6.25;;;1.65;;
21833;SDS011;11079;51.092;3.458;2022-09-20T18:39:09;4.95;;;2.40;;
21833;SDS011;11079;51.092;3.458;2022-09-20T18:41:36;5.13;;;2.83;;
21833;SDS011;11079;51.092;3.458;2022-09-20T18:44:04;9.80;;;2.53;;
21833;SDS011;11079;51.092;3.458;2022-09-20T18:46:38;12.45;;;3.00;;
21833;SDS011;11079;51.092;3.458;2022-09-20T18:49:09;6.07;;;3.30;;
21833;SDS011;11079;51.092;3.458;2022-09-20T18:51:39;8.45;;;4.20;;
21833;SDS011;11079;51.092;3.458;2022-09-20T18:54:08;11.45;;;4.85;;
21833;SDS011;11079;51.092;3.458;2022-09-20T18:56:42;8.45;;;4.47;;
21833;SDS011;11079;51.092;3.458;2022-09-20T18:59:14;9.07;;;4.38;;
21833;SDS011;11079;51.092;3.458;2022-09-20T19:10:07;5.80;;;4.18;;
21833;SDS011;11079;51.092;3.458;2022-09-20T19:18:13;9.70;;;3.10;;
21833;SDS011;11079;51.092;3.458;2022-09-20T19:21:30;8.00;;;3.63;;
21833;SDS011;11079;51.092;3.458;2022-09-20T19:24:14;6.90;;;3.33;;
21833;SDS011;11079;51.092;3.458;2022-09-20T19:26:52;12.40;;;4.32;;
21833;SDS011;11079;51.092;3.458;2022-09-20T19:29:22;7.05;;;3.88;;
21833;SDS011;11079;51.092;3.458;2022-09-20T19:31:55;7.25;;;4.32;;
21833;SDS011;11079;51.092;3.458;2022-09-20T19:36:58;7.90;;;4.57;;
21833;SDS011;11079;51.092;3.458;2022-09-20T19:51:11;9.68;;;5.80;;
21833;SDS011;11079;51.092;3.458;2022-09-20T19:53:38;12.27;;;5.80;;
21833;SDS011;11079;51.092;3.458;2022-09-20T19:58:49;14.73;;;7.03;;
21833;SDS011;11079;51.092;3.458;2022-09-20T20:01:19;11.13;;;7.30;;
21833;SDS011;11079;51.092;3.458;2022-09-20T20:03:46;12.98;;;8.20;;
21833;SDS011;11079;51.092;3.458;2022-09-20T20:06:18;14.68;;;7.57;;
21833;SDS011;11079;51.092;3.458;2022-09-20T20:09:11;9.60;;;7.28;;
21833;SDS011;11079;51.092;3.458;2022-09-20T20:11:59;12.40;;;7.65;;
21833;SDS011;11079;51.092;3.458;2022-09-20T20:17:16;11.95;;;7.75;;
21833;SDS011;11079;51.092;3.458;2022-09-20T20:28:19;21.23;;;11.35;;
21833;SDS011;11079;51.092;3.458;2022-09-20T20:30:44;20.92;;;11.43;;
21833;SDS011;11079;51.092;3.458;2022-09-20T20:33:14;18.80;;;10.77;;
21833;SDS011;11079;51.092;3.458;2022-09-20T20:35:40;15.23;;;9.45;;
21833;SDS011;11079;51.092;3.458;2022-09-20T20:38:05;15.65;;;9.95;;
21833;SDS011;11079;51.092;3.458;2022-09-20T20:40:36;13.65;;;9.63;;
21833;SDS011;11079;51.092;3.458;2022-09-20T20:43:02;18.10;;;10.23;;
21833;SDS011;11079;51.092;3.458;2022-09-20T20:45:30;14.05;;;9.45;;
21833;SDS011;11079;51.092;3.458;2022-09-20T20:47:56;11.32;;;8.05;;
21833;SDS011;11079;51.092;3.458;2022-09-20T20:50:22;12.00;;;8.10;;
21833;SDS011;11079;51.092;3.458;2022-09-20T20:52:52;15.60;;;8.70;;
21833;SDS011;11079;51.092;3.458;2022-09-20T20:55:18;19.58;;;9.60;;
21833;SDS011;11079;51.092;3.458;2022-09-20T20:57:49;15.50;;;8.95;;
21833;SDS011;11079;51.092;3.458;2022-09-20T21:00:25;12.65;;;8.00;;
21833;SDS011;11079;51.092;3.458;2022-09-20T21:02:57;13.25;;;9.02;;
21833;SDS011;11079;51.092;3.458;2022-09-20T21:05:24;13.27;;;8.55;;
21833;SDS011;11079;51.092;3.458;2022-09-20T21:07:51;12.48;;;8.75;;
21833;SDS011;11079;51.092;3.458;2022-09-20T21:10:17;12.90;;;9.10;;
21833;SDS011;11079;51.092;3.458;2022-09-20T21:12:43;12.32;;;9.25;;
21833;SDS011;11079;51.092;3.458;2022-09-20T21:15:09;15.57;;;9.70;;
21833;SDS011;11079;51.092;3.458;2022-09-20T21:17:35;15.50;;;10.18;;
21833;SDS011;11079;51.092;3.458;2022-09-20T21:20:01;12.93;;;9.57;;
21833;SDS011;11079;51.092;3.458;2022-09-20T21:22:28;13.20;;;9.50;;
21833;SDS011;11079;51.092;3.458;2022-09-20T21:24:53;13.55;;;9.45;;
21833;SDS011;11079;51.092;3.458;2022-09-20T21:27:19;17.42;;;9.13;;
21833;SDS011;11079;51.092;3.458;2022-09-20T21:29:45;15.50;;;9.60;;
21833;SDS011;11079;51.092;3.458;2022-09-20T21:32:10;14.52;;;10.25;;
21833;SDS011;11079;51.092;3.458;2022-09-20T21:34:38;13.73;;;9.45;;
21833;SDS011;11079;51.092;3.458;2022-09-20T21:37:03;12.75;;;10.07;;
21833;SDS011;11079;51.092;3.458;2022-09-20T21:39:29;14.85;;;10.38;;
21833;SDS011;11079;51.092;3.458;2022-09-20T21:41:55;17.63;;;10.55;;
21833;SDS011;11079;51.092;3.458;2022-09-20T21:44:21;14.15;;;9.35;;
21833;SDS011;11079;51.092;3.458;2022-09-20T21:46:47;13.55;;;9.40;;
21833;SDS011;11079;51.092;3.458;2022-09-20T21:49:13;17.85;;;10.27;;
21833;SDS011;11079;51.092;3.458;2022-09-20T21:51:40;13.95;;;10.02;;
21833;SDS011;11079;51.092;3.458;2022-09-20T21:54:06;13.77;;;9.45;;
21833;SDS011;11079;51.092;3.458;2022-09-20T21:56:34;16.15;;;10.23;;
21833;SDS011;11079;51.092;3.458;2022-09-20T21:59:02;15.93;;;9.70;;
21833;SDS011;11079;51.092;3.458;2022-09-20T22:01:33;14.70;;;9.90;;
21833;SDS011;11079;51.092;3.458;2022-09-20T22:04:03;14.63;;;9.82;;
21833;SDS011;11079;51.092;3.458;2022-09-20T22:06:34;16.60;;;9.27;;
21833;SDS011;11079;51.092;3.458;2022-09-20T22:09:04;13.45;;;9.50;;
21833;SDS011;11079;51.092;3.458;2022-09-20T22:11:39;15.65;;;10.70;;
21833;SDS011;11079;51.092;3.458;2022-09-20T22:14:13;17.25;;;10.35;;
21833;SDS011;11079;51.092;3.458;2022-09-20T22:16:41;14.35;;;9.18;;
21833;SDS011;11079;51.092;3.458;2022-09-20T22:19:08;15.45;;;9.27;;
21833;SDS011;11079;51.092;3.458;2022-09-20T22:21:36;16.25;;;9.68;;
21833;SDS011;11079;51.092;3.458;2022-09-20T22:24:04;11.75;;;9.25;;